createdAt,value
2019-04-10T00:02:26.016Z,19.33
2019-04-10T00:04:57.733Z,21.03
2019-04-10T00:07:29.499Z,21.60
2019-04-10T00:10:01.499Z,19.50
2019-04-10T00:12:33.848Z,21.37
2019-04-10T00:15:07.167Z,21.33
2019-04-10T00:17:39.532Z,23.13
2019-04-10T00:20:11.951Z,24.47
2019-04-10T00:22:44.497Z,19.83
2019-04-10T00:25:16.848Z,19.23
2019-04-10T00:27:49.078Z,20.33
2019-04-10T00:30:20.786Z,19.50
2019-04-10T00:32:52.993Z,19.17
2019-04-10T00:35:25.614Z,20.73
2019-04-10T00:37:57.543Z,20.83
2019-04-10T00:40:31.067Z,25.00
2019-04-10T00:43:03.033Z,18.83
2019-04-10T00:45:35.613Z,20.03
2019-04-10T00:48:07.882Z,19.90
2019-04-10T00:50:40.112Z,18.23
2019-04-10T00:53:12.751Z,17.13
2019-04-10T00:55:46.114Z,17.80
2019-04-10T00:58:18.438Z,17.17
2019-04-10T01:00:50.469Z,17.90
2019-04-10T01:03:42.067Z,18.23
2019-04-10T01:06:14.348Z,16.75
2019-04-10T01:08:46.426Z,16.80
2019-04-10T01:11:19.017Z,19.03
2019-04-10T01:13:51.612Z,17.87
2019-04-10T01:16:23.580Z,16.67
2019-04-10T01:18:55.534Z,16.53
2019-04-10T01:21:28.273Z,17.27
2019-04-10T01:24:01.377Z,19.13
2019-04-10T01:26:33.257Z,18.20
2019-04-10T01:29:05.443Z,18.70
2019-04-10T01:31:37.461Z,18.37
2019-04-10T01:34:09.497Z,18.33
2019-04-10T01:36:41.239Z,19.70
2019-04-10T01:39:15.892Z,19.13
2019-04-10T01:41:48.156Z,18.40
2019-04-10T01:44:20.542Z,17.57
2019-04-10T01:46:52.948Z,17.87
2019-04-10T01:49:25.909Z,17.80
2019-04-10T01:51:58.136Z,18.47
2019-04-10T01:54:31.115Z,19.53
2019-04-10T01:57:04.098Z,18.80
2019-04-10T01:59:38.213Z,19.70
2019-04-10T02:02:12.691Z,18.97
2019-04-10T02:04:44.470Z,19.33
2019-04-10T02:07:16.275Z,18.00
2019-04-10T02:09:48.363Z,17.83
2019-04-10T02:12:20.737Z,18.13
2019-04-10T02:14:52.728Z,19.37
2019-04-10T02:17:24.805Z,18.00
2019-04-10T02:19:56.846Z,17.10
2019-04-10T02:22:29.499Z,17.87
2019-04-10T02:25:01.338Z,18.20
2019-04-10T02:27:34.322Z,18.17
2019-04-10T02:30:12.054Z,16.43
2019-04-10T02:32:47.726Z,19.40
2019-04-10T02:35:20.239Z,19.97
2019-04-10T02:37:55.385Z,19.50
2019-04-10T02:40:25.573Z,20.23
2019-04-10T02:42:59.042Z,19.13
2019-04-10T02:45:32.554Z,21.30
2019-04-10T02:48:06.160Z,19.63
2019-04-10T02:50:38.665Z,18.60
2019-04-10T02:53:10.987Z,19.37
2019-04-10T02:55:43.279Z,18.87
2019-04-10T02:58:16.066Z,19.57
2019-04-10T03:00:48.822Z,21.07
2019-04-10T03:03:22.401Z,19.30
2019-04-10T03:05:54.360Z,21.53
2019-04-10T03:08:43.187Z,20.47
2019-04-10T03:11:04.180Z,21.43
2019-04-10T03:13:35.724Z,17.97
2019-04-10T03:16:07.667Z,18.50
2019-04-10T03:18:41.019Z,21.57
2019-04-10T03:21:13.715Z,20.63
2019-04-10T03:23:45.726Z,21.40
2019-04-10T03:26:17.512Z,18.60
2019-04-10T03:28:49.455Z,19.17
2019-04-10T03:31:23.040Z,19.97
2019-04-10T03:33:58.773Z,19.00
2019-04-10T03:36:39.971Z,19.10
2019-04-10T03:39:13.122Z,21.20
2019-04-10T03:41:45.363Z,18.67
2019-04-10T03:44:18.618Z,21.50
2019-04-10T03:46:51.192Z,16.63
2019-04-10T03:49:24.238Z,16.47
2019-04-10T03:51:56.710Z,19.70
2019-04-10T03:54:30.090Z,21.23
2019-04-10T03:57:02.505Z,20.83
2019-04-10T03:59:35.974Z,19.47
2019-04-10T04:02:09.517Z,20.73
2019-04-10T04:04:42.329Z,20.50
2019-04-10T04:07:15.423Z,21.30
2019-04-10T04:09:48.069Z,17.90
2019-04-10T04:12:20.245Z,21.10
2019-04-10T04:14:52.778Z,19.90
2019-04-10T04:17:24.657Z,18.43
2019-04-10T04:19:56.705Z,22.93
2019-04-10T04:22:29.154Z,18.97
2019-04-10T04:25:01.322Z,20.03
2019-04-10T04:27:33.840Z,19.37
2019-04-10T04:30:08.346Z,19.80
2019-04-10T04:32:42.110Z,20.57
2019-04-10T04:35:15.275Z,18.73
2019-04-10T04:37:48.417Z,18.47
2019-04-10T04:40:21.639Z,20.40
2019-04-10T04:42:55.646Z,21.70
2019-04-10T04:45:27.859Z,20.17
2019-04-10T04:48:00.539Z,18.23
2019-04-10T04:50:34.107Z,20.90
2019-04-10T04:53:06.677Z,19.20
2019-04-10T04:55:39.469Z,19.03
2019-04-10T04:58:11.849Z,20.57
2019-04-10T05:00:43.585Z,19.90
2019-04-10T05:03:16.337Z,23.47
2019-04-10T05:05:48.166Z,21.30
2019-04-10T05:08:20.324Z,22.77
2019-04-10T05:10:52.440Z,20.97
2019-04-10T05:13:24.475Z,21.30
2019-04-10T05:15:57.335Z,19.20
2019-04-10T05:18:32.124Z,22.37
2019-04-10T05:21:03.793Z,19.03
2019-04-10T05:23:35.750Z,21.30
2019-04-10T05:26:10.364Z,19.93
2019-04-10T05:28:44.522Z,19.87
2019-04-10T05:31:17.233Z,20.90
2019-04-10T05:33:49.977Z,21.30
2019-04-10T05:36:21.680Z,22.10
2019-04-10T05:38:54.446Z,24.30
2019-04-10T05:41:26.459Z,22.10
2019-04-10T05:43:58.959Z,22.13
2019-04-10T05:46:30.980Z,20.67
2019-04-10T05:49:04.558Z,22.73
2019-04-10T05:51:37.450Z,27.80
2019-04-10T05:54:11.374Z,24.23
2019-04-10T05:56:45.422Z,28.77
2019-04-10T05:59:17.268Z,26.03
2019-04-10T06:01:50.503Z,24.00
2019-04-10T06:04:22.388Z,22.50
2019-04-10T06:06:54.885Z,21.83
2019-04-10T06:09:26.953Z,21.77
2019-04-10T06:12:03.465Z,22.47
2019-04-10T06:14:35.015Z,22.57
2019-04-10T06:17:07.941Z,17.70
2019-04-10T06:19:40.741Z,19.63
2019-04-10T06:22:12.807Z,23.40
2019-04-10T06:24:44.816Z,23.30
2019-04-10T06:27:16.603Z,19.03
2019-04-10T06:29:48.244Z,21.30
2019-04-10T06:32:21.177Z,22.63
2019-04-10T06:34:53.339Z,20.87
2019-04-10T06:37:26.168Z,19.17
2019-04-10T06:40:07.871Z,18.60
2019-04-10T06:42:44.357Z,21.77
2019-04-10T06:45:07.253Z,22.80
2019-04-10T06:47:39.395Z,22.63
2019-04-10T06:50:13.263Z,23.17
2019-04-10T06:52:51.429Z,24.47
2019-04-10T06:55:25.417Z,25.17
2019-04-10T06:57:59.309Z,24.67
2019-04-10T07:00:32.484Z,22.13
2019-04-10T07:03:04.848Z,22.03
2019-04-10T07:05:46.883Z,22.87
2019-04-10T07:08:16.457Z,22.73
2019-04-10T07:10:53.180Z,20.70
2019-04-10T07:13:19.601Z,21.10
2019-04-10T07:15:54.440Z,22.17
2019-04-10T07:18:26.312Z,22.20
2019-04-10T07:21:00.999Z,22.30
2019-04-10T07:23:33.403Z,21.33
2019-04-10T07:26:06.024Z,22.57
2019-04-10T07:28:41.509Z,20.13
2019-04-10T07:31:11.674Z,22.67
2019-04-10T07:33:47.143Z,20.23
2019-04-10T07:36:18.222Z,24.20
2019-04-10T07:38:53.898Z,23.97
2019-04-10T07:41:25.947Z,24.27
2019-04-10T07:43:58.195Z,20.93
2019-04-10T07:46:31.221Z,20.63
2019-04-10T07:49:03.580Z,23.80
2019-04-10T07:51:36.576Z,25.07
2019-04-10T07:54:09.191Z,22.47
2019-04-10T07:56:41.796Z,23.23
2019-04-10T07:59:13.980Z,23.90
2019-04-10T08:01:49.513Z,24.73
2019-04-10T08:04:23.212Z,24.73
2019-04-10T08:06:54.973Z,28.47
2019-04-10T08:09:27.311Z,25.03
2019-04-10T08:11:59.149Z,26.57
2019-04-10T08:14:31.570Z,29.70
2019-04-10T08:17:03.817Z,26.03
2019-04-10T08:19:36.924Z,23.60
2019-04-10T08:22:10.266Z,25.27
2019-04-10T08:24:42.701Z,26.37
2019-04-10T08:27:14.968Z,23.60
2019-04-10T08:29:46.689Z,24.53
2019-04-10T08:32:18.425Z,24.97
2019-04-10T08:34:51.241Z,23.37
2019-04-10T08:37:24.183Z,22.73
2019-04-10T08:39:56.845Z,20.53
2019-04-10T08:42:28.915Z,22.80
2019-04-10T08:45:00.825Z,22.87
2019-04-10T08:47:33.452Z,22.50
2019-04-10T08:50:07.636Z,19.70
2019-04-10T08:52:40.984Z,23.23
2019-04-10T08:55:13.430Z,19.83
2019-04-10T08:57:46.199Z,23.93
2019-04-10T09:00:18.625Z,21.00
2019-04-10T09:02:50.603Z,22.70
2019-04-10T09:05:23.805Z,21.07
2019-04-10T09:07:57.446Z,22.33
2019-04-10T09:10:30.246Z,21.17
2019-04-10T09:13:02.173Z,20.03
2019-04-10T09:15:34.385Z,22.97
2019-04-10T09:18:06.491Z,24.23
2019-04-10T09:20:38.597Z,20.77
2019-04-10T09:23:23.647Z,21.17
2019-04-10T09:25:44.221Z,20.17
2019-04-10T09:28:16.211Z,23.57
2019-04-10T09:30:49.006Z,27.47
2019-04-10T09:33:24.914Z,25.43
2019-04-10T09:35:57.754Z,25.07
2019-04-10T09:38:30.677Z,26.07
2019-04-10T09:41:03.625Z,24.23
2019-04-10T09:43:37.929Z,24.67
2019-04-10T09:46:11.269Z,29.87
2019-04-10T09:48:44.242Z,24.33
2019-04-10T09:51:19.456Z,26.20
2019-04-10T09:53:51.248Z,22.70
2019-04-10T09:56:23.701Z,24.83
2019-04-10T09:58:56.745Z,27.53
2019-04-10T10:01:30.291Z,28.53
2019-04-10T10:04:02.867Z,24.57
2019-04-10T10:06:36.591Z,26.00
2019-04-10T10:09:08.488Z,22.77
2019-04-10T10:11:40.356Z,23.50
2019-04-10T10:14:12.554Z,22.13
2019-04-10T10:16:45.002Z,22.77
2019-04-10T10:19:18.228Z,26.10
2019-04-10T10:21:50.531Z,24.27
2019-04-10T10:24:22.563Z,22.07
2019-04-10T10:26:55.545Z,20.33
2019-04-10T10:29:28.144Z,21.20
2019-04-10T10:32:00.404Z,21.73
2019-04-10T10:34:32.430Z,20.13
2019-04-10T10:37:06.325Z,22.67
2019-04-10T10:39:38.991Z,20.47
2019-04-10T10:42:11.668Z,20.47
2019-04-10T10:44:45.966Z,20.40
2019-04-10T10:47:18.125Z,17.97
2019-04-10T10:49:50.816Z,64.47
2019-04-10T10:52:23.683Z,55.23
2019-04-10T10:54:55.602Z,56.00
2019-04-10T10:57:27.542Z,44.07
2019-04-10T10:59:59.861Z,38.20
2019-04-10T11:02:32.437Z,33.33
2019-04-10T11:05:07.083Z,34.67
2019-04-10T11:07:38.977Z,32.13
2019-04-10T11:10:11.115Z,27.10
2019-04-10T11:12:44.096Z,26.80
2019-04-10T11:15:16.266Z,29.80
2019-04-10T11:17:49.862Z,27.97
2019-04-10T11:20:21.981Z,27.00
2019-04-10T11:22:54.088Z,25.63
2019-04-10T11:25:26.158Z,25.70
2019-04-10T11:27:58.447Z,28.27
2019-04-10T11:30:30.589Z,25.33
2019-04-10T11:33:02.683Z,23.97
2019-04-10T11:35:34.937Z,26.43
2019-04-10T11:38:07.258Z,25.23
2019-04-10T11:40:45.607Z,23.97
2019-04-10T11:43:19.049Z,27.43
2019-04-10T11:45:53.853Z,25.07
2019-04-10T11:48:25.660Z,23.80
2019-04-10T11:51:00.647Z,23.73
2019-04-10T11:53:32.706Z,26.73
2019-04-10T11:56:05.707Z,22.33
2019-04-10T12:01:13.073Z,23.03
2019-04-10T12:03:49.082Z,21.73
2019-04-10T12:06:22.390Z,23.20
2019-04-10T12:09:13.337Z,20.10
2019-04-10T12:11:26.090Z,20.27
2019-04-10T12:13:58.918Z,19.07
2019-04-10T12:16:31.348Z,19.13
2019-04-10T12:19:04.621Z,18.97
2019-04-10T12:21:37.906Z,17.67
2019-04-10T12:24:11.562Z,15.83
2019-04-10T12:26:45.030Z,16.13
2019-04-10T12:29:18.274Z,19.83
2019-04-10T12:31:54.537Z,29.80
2019-04-10T12:34:26.933Z,30.27
2019-04-10T12:36:59.431Z,24.60
2019-04-10T12:39:32.217Z,27.07
2019-04-10T12:42:04.364Z,21.23
2019-04-10T12:44:36.068Z,23.10
2019-04-10T12:47:08.229Z,22.03
2019-04-10T12:49:41.287Z,21.43
2019-04-10T12:52:16.383Z,23.60
2019-04-10T12:54:49.138Z,19.37
2019-04-10T12:57:21.116Z,26.70
2019-04-10T12:59:59.407Z,23.47
2019-04-10T13:02:26.451Z,21.17
2019-04-10T13:04:58.719Z,21.27
2019-04-10T13:07:31.686Z,18.73
2019-04-10T13:10:06.676Z,17.90
2019-04-10T13:12:39.679Z,18.07
2019-04-10T13:15:13.062Z,19.47
2019-04-10T13:17:49.032Z,16.13
2019-04-10T13:20:21.890Z,14.60
2019-04-10T13:22:53.777Z,15.53
2019-04-10T13:25:26.052Z,15.07
2019-04-10T13:27:57.756Z,16.77
2019-04-10T13:30:41.479Z,13.57
2019-04-10T13:33:03.197Z,14.63
2019-04-10T13:35:35.549Z,15.17
2019-04-10T13:38:07.361Z,18.27
2019-04-10T13:40:39.575Z,14.60
2019-04-10T13:43:11.716Z,13.27
2019-04-10T13:45:43.936Z,12.73
2019-04-10T13:48:16.542Z,15.90
2019-04-10T13:50:48.751Z,15.57
2019-04-10T13:53:21.663Z,14.50
2019-04-10T13:55:54.723Z,19.87
2019-04-10T13:58:28.824Z,20.30
2019-04-10T14:01:03.020Z,20.90
2019-04-10T14:03:34.703Z,25.10
2019-04-10T14:06:25.458Z,18.10
2019-04-10T14:09:11.600Z,17.32
2019-04-10T14:11:31.165Z,17.27
2019-04-10T14:14:04.423Z,17.83
2019-04-10T14:16:39.064Z,17.43
2019-04-10T14:19:10.790Z,16.03
2019-04-10T14:21:42.882Z,17.47
2019-04-10T14:24:15.719Z,14.27
2019-04-10T14:27:05.788Z,15.53
2019-04-10T14:29:38.631Z,16.73
2019-04-10T14:32:13.358Z,14.93
2019-04-10T14:34:47.051Z,13.77
2019-04-10T14:37:19.116Z,11.90
2019-04-10T14:39:51.563Z,14.80
2019-04-10T14:42:24.535Z,13.93
2019-04-10T14:44:57.154Z,15.60
2019-04-10T14:47:29.691Z,15.23
2019-04-10T14:50:02.130Z,15.10
2019-04-10T14:52:35.687Z,12.67
2019-04-10T14:55:08.209Z,14.90
2019-04-10T14:57:41.009Z,14.73
2019-04-10T15:00:14.753Z,16.93
2019-04-10T15:02:47.334Z,12.20
2019-04-10T15:05:19.311Z,13.20
2019-04-10T15:07:51.144Z,15.87
2019-04-10T15:10:23.193Z,15.30
2019-04-10T15:13:06.898Z,14.73
2019-04-10T15:15:29.247Z,15.10
2019-04-10T15:18:02.462Z,15.30
2019-04-10T15:20:35.624Z,15.33
2019-04-10T15:23:07.889Z,17.57
2019-04-10T15:25:41.533Z,14.80
2019-04-10T15:28:14.002Z,15.03
2019-04-10T15:30:46.579Z,16.40
2019-04-10T15:33:18.604Z,13.53
2019-04-10T15:35:51.171Z,14.10
2019-04-10T15:38:24.149Z,13.83
2019-04-10T15:40:56.802Z,15.60
2019-04-10T15:43:29.432Z,13.40
2019-04-10T15:46:02.301Z,18.63
2019-04-10T15:48:37.691Z,16.47
2019-04-10T15:51:11.969Z,13.67
2019-04-10T15:53:43.886Z,20.30
2019-04-10T15:56:15.913Z,15.63
2019-04-10T15:58:47.937Z,16.60
2019-04-10T16:01:20.115Z,16.07
2019-04-10T16:03:52.758Z,17.03
2019-04-10T16:06:25.307Z,13.03
2019-04-10T16:08:57.278Z,14.10
2019-04-10T16:11:43.720Z,13.60
2019-04-10T16:14:22.598Z,16.27
2019-04-10T16:16:54.920Z,12.10
2019-04-10T16:19:34.621Z,15.27
2019-04-10T16:22:08.665Z,11.77
2019-04-10T16:24:40.907Z,11.13
2019-04-10T16:27:13.686Z,11.13
2019-04-10T16:29:46.846Z,11.70
2019-04-10T16:32:21.180Z,11.27
2019-04-10T16:34:52.876Z,11.63
2019-04-10T16:37:24.816Z,12.20
2019-04-10T16:40:03.297Z,15.33
2019-04-10T16:42:30.750Z,11.10
2019-04-10T16:45:03.877Z,10.00
2019-04-10T16:47:36.506Z,11.70
2019-04-10T16:50:09.301Z,12.97
2019-04-10T16:52:41.062Z,10.30
2019-04-10T16:55:13.533Z,12.50
2019-04-10T16:57:45.845Z,11.57
2019-04-10T17:00:20.577Z,11.53
2019-04-10T17:02:52.723Z,11.77
2019-04-10T17:05:25.101Z,12.47
2019-04-10T17:07:57.339Z,11.77
2019-04-10T17:10:29.853Z,12.13
2019-04-10T17:13:02.349Z,14.03
2019-04-10T17:15:34.401Z,12.93
2019-04-10T17:18:06.648Z,10.77
2019-04-10T17:20:42.482Z,12.33
2019-04-10T17:23:14.476Z,11.47
2019-04-10T17:25:46.542Z,10.37
2019-04-10T17:28:21.667Z,11.33
2019-04-10T17:30:53.948Z,11.87
2019-04-10T17:33:26.752Z,12.47
2019-04-10T17:36:00.174Z,10.80
2019-04-10T17:38:32.027Z,12.57
2019-04-10T17:41:04.454Z,11.77
2019-04-10T17:43:37.169Z,11.50
2019-04-10T17:46:09.288Z,13.10
2019-04-10T17:48:42.058Z,12.13
2019-04-10T17:51:14.159Z,10.50
2019-04-10T17:53:47.321Z,10.87
2019-04-10T17:56:20.135Z,10.87
2019-04-10T17:58:52.069Z,11.30
2019-04-10T18:01:25.536Z,9.70
2019-04-10T18:04:00.535Z,10.13
2019-04-10T18:06:31.176Z,11.57
2019-04-10T18:09:03.628Z,10.97
2019-04-10T18:11:35.354Z,12.00
2019-04-10T18:14:09.027Z,11.63
2019-04-10T18:16:40.763Z,10.40
2019-04-10T18:19:16.964Z,9.47
2019-04-10T18:21:49.881Z,11.37
2019-04-10T18:24:22.081Z,10.30
2019-04-10T18:26:56.555Z,11.53
2019-04-10T18:29:28.209Z,8.07
2019-04-10T18:32:01.814Z,8.47
2019-04-10T18:34:35.388Z,10.30
2019-04-10T18:37:11.107Z,10.07
2019-04-10T18:39:43.005Z,10.93
2019-04-10T18:42:15.025Z,10.93
2019-04-10T18:44:50.263Z,12.93
2019-04-10T18:47:22.387Z,14.70
2019-04-10T18:49:55.870Z,13.47
2019-04-10T18:52:27.965Z,14.13
2019-04-10T18:55:00.495Z,14.60
2019-04-10T18:57:35.682Z,12.27
2019-04-10T19:00:26.260Z,11.93
2019-04-10T19:03:17.468Z,11.73
2019-04-10T19:05:56.396Z,12.93
2019-04-10T19:08:28.424Z,14.77
2019-04-10T19:11:10.645Z,14.23
2019-04-10T19:13:34.803Z,10.60
2019-04-10T19:16:08.912Z,9.87
2019-04-10T19:18:41.283Z,9.10
2019-04-10T19:21:13.294Z,11.40
2019-04-10T19:23:47.831Z,12.47
2019-04-10T19:26:23.154Z,9.47
2019-04-10T19:29:01.172Z,9.83
2019-04-10T19:31:37.506Z,10.47
2019-04-10T19:34:10.240Z,12.70
2019-04-10T19:36:44.410Z,9.53
2019-04-10T19:39:16.574Z,9.80
2019-04-10T19:41:49.004Z,8.97
2019-04-10T19:44:24.863Z,8.70
2019-04-10T19:46:57.816Z,9.47
2019-04-10T19:49:30.789Z,8.30
2019-04-10T19:52:06.383Z,9.87
2019-04-10T19:54:38.866Z,9.27
2019-04-10T19:57:29.512Z,10.77
2019-04-10T20:00:08.635Z,9.25
2019-04-10T20:02:41.737Z,8.47
2019-04-10T20:05:15.010Z,9.03
2019-04-10T20:07:47.356Z,10.63
2019-04-10T20:10:19.312Z,8.23
2019-04-10T20:12:57.178Z,9.10
2019-04-10T20:15:31.409Z,9.23
2019-04-10T20:18:04.371Z,10.03
2019-04-10T20:20:37.468Z,8.80
2019-04-10T20:23:19.378Z,8.07
2019-04-10T20:25:51.533Z,7.53
2019-04-10T20:28:24.673Z,10.90
2019-04-10T20:30:58.085Z,7.93
2019-04-10T20:33:32.675Z,8.17
2019-04-10T20:36:04.817Z,7.97
2019-04-10T20:38:36.713Z,8.97
2019-04-10T20:41:10.773Z,9.47
2019-04-10T20:43:43.387Z,7.67
2019-04-10T20:46:15.086Z,10.10
2019-04-10T20:48:50.862Z,7.80
2019-04-10T20:51:25.017Z,10.13
2019-04-10T20:53:57.929Z,8.53
2019-04-10T20:56:30.704Z,8.17
2019-04-10T20:59:03.494Z,6.87
2019-04-10T21:01:35.696Z,7.00
2019-04-10T21:04:09.205Z,7.67
2019-04-10T21:06:43.616Z,8.93
2019-04-10T21:09:34.110Z,7.20
2019-04-10T21:12:12.827Z,7.97
2019-04-10T21:14:43.896Z,7.60
2019-04-10T21:17:16.429Z,6.87
2019-04-10T21:19:49.415Z,7.73
2019-04-10T21:22:24.606Z,7.37
2019-04-10T21:24:56.935Z,6.67
2019-04-10T21:27:28.590Z,8.90
2019-04-10T21:30:22.081Z,6.40
2019-04-10T21:33:14.292Z,7.53
2019-04-10T21:35:47.664Z,7.23
2019-04-10T21:38:19.872Z,7.00
2019-04-10T21:40:51.848Z,6.80
2019-04-10T21:43:23.739Z,8.30
2019-04-10T21:45:55.550Z,6.60
2019-04-10T21:48:27.645Z,7.40
2019-04-10T21:51:00.590Z,7.40
2019-04-10T21:53:34.152Z,6.73
2019-04-10T21:56:06.278Z,6.30
2019-04-10T21:58:38.883Z,6.73
2019-04-10T22:01:11.912Z,7.70
2019-04-10T22:03:43.661Z,10.10
2019-04-10T22:06:26.119Z,6.80
2019-04-10T22:08:59.519Z,6.70
2019-04-10T22:11:31.567Z,7.30
2019-04-10T22:14:04.504Z,7.13
2019-04-10T22:16:36.517Z,6.23
2019-04-10T22:19:08.810Z,7.30
2019-04-10T22:21:41.945Z,6.97
2019-04-10T22:24:13.969Z,5.97
2019-04-10T22:26:46.804Z,6.83
2019-04-10T22:29:19.549Z,7.47
2019-04-10T22:31:51.433Z,7.70
2019-04-10T22:34:23.040Z,7.83
2019-04-10T22:36:55.603Z,8.43
2019-04-10T22:39:27.670Z,7.40
2019-04-10T22:41:59.712Z,6.83
2019-04-10T22:44:36.717Z,7.97
2019-04-10T22:47:05.426Z,7.13
2019-04-10T22:49:37.193Z,8.87
2019-04-10T22:52:09.141Z,10.53
2019-04-10T22:54:42.303Z,11.90
2019-04-10T22:57:14.553Z,9.10
2019-04-10T22:59:46.918Z,7.60
2019-04-10T23:02:19.336Z,7.97
2019-04-10T23:04:51.639Z,8.43
2019-04-10T23:07:24.100Z,7.77
2019-04-10T23:09:56.917Z,7.77
2019-04-10T23:12:30.011Z,7.57
2019-04-10T23:15:02.973Z,9.30
2019-04-10T23:17:35.035Z,7.40
2019-04-10T23:20:08.743Z,8.57
2019-04-10T23:22:41.066Z,7.53
2019-04-10T23:25:13.090Z,8.13
2019-04-10T23:27:46.105Z,7.83
2019-04-10T23:30:19.962Z,6.93
2019-04-10T23:32:53.271Z,7.00
2019-04-10T23:35:25.471Z,7.37
2019-04-10T23:37:57.477Z,6.83
2019-04-10T23:40:29.804Z,7.17
2019-04-10T23:43:09.385Z,7.03
2019-04-10T23:45:35.579Z,7.13
2019-04-10T23:48:08.682Z,6.07
2019-04-10T23:50:40.757Z,6.53
2019-04-10T23:53:12.531Z,6.80
2019-04-10T23:55:44.394Z,7.70
2019-04-10T23:58:16.281Z,6.63
